sensor_id;sensor_type;location;lat;lon;timestamp;P1;durP1;ratioP1;P2;durP2;ratioP2
23472;SDS011;11909;52.516;13.564;2023-07-31T00:02:13;3.42;;;1.38;;
23472;SDS011;11909;52.516;13.564;2023-07-31T00:04:41;4.20;;;1.98;;
23472;SDS011;11909;52.516;13.564;2023-07-31T00:07:08;3.42;;;1.35;;
23472;SDS011;11909;52.516;13.564;2023-07-31T00:09:38;2.47;;;1.55;;
23472;SDS011;11909;52.516;13.564;2023-07-31T00:12:06;4.47;;;1.63;;
23472;SDS011;11909;52.516;13.564;2023-07-31T00:14:34;7.40;;;1.58;;
23472;SDS011;11909;52.516;13.564;2023-07-31T00:17:03;3.60;;;1.27;;
23472;SDS011;11909;52.516;13.564;2023-07-31T00:19:31;3.13;;;1.83;;
23472;SDS011;11909;52.516;13.564;2023-07-31T00:21:59;2.83;;;1.33;;
23472;SDS011;11909;52.516;13.564;2023-07-31T00:24:27;4.55;;;1.63;;
23472;SDS011;11909;52.516;13.564;2023-07-31T00:26:56;2.78;;;1.30;;
23472;SDS011;11909;52.516;13.564;2023-07-31T00:29:24;2.60;;;1.25;;
23472;SDS011;11909;52.516;13.564;2023-07-31T00:31:52;4.63;;;1.23;;
23472;SDS011;11909;52.516;13.564;2023-07-31T00:34:20;2.90;;;1.40;;
23472;SDS011;11909;52.516;13.564;2023-07-31T00:36:48;5.35;;;1.60;;
23472;SDS011;11909;52.516;13.564;2023-07-31T00:39:15;6.07;;;1.63;;
23472;SDS011;11909;52.516;13.564;2023-07-31T00:41:44;5.80;;;1.63;;
23472;SDS011;11909;52.516;13.564;2023-07-31T00:44:13;4.68;;;2.03;;
23472;SDS011;11909;52.516;13.564;2023-07-31T00:46:41;4.68;;;1.60;;
23472;SDS011;11909;52.516;13.564;2023-07-31T00:49:09;5.70;;;1.27;;
23472;SDS011;11909;52.516;13.564;2023-07-31T00:51:38;4.13;;;1.40;;
23472;SDS011;11909;52.516;13.564;2023-07-31T00:54:06;2.05;;;1.23;;
23472;SDS011;11909;52.516;13.564;2023-07-31T00:56:34;2.72;;;1.58;;
23472;SDS011;11909;52.516;13.564;2023-07-31T00:59:02;3.42;;;1.88;;
23472;SDS011;11909;52.516;13.564;2023-07-31T01:01:31;3.00;;;1.20;;
23472;SDS011;11909;52.516;13.564;2023-07-31T01:04:00;2.40;;;1.33;;
23472;SDS011;11909;52.516;13.564;2023-07-31T01:06:29;3.17;;;1.27;;
23472;SDS011;11909;52.516;13.564;2023-07-31T01:09:04;5.55;;;1.83;;
23472;SDS011;11909;52.516;13.564;2023-07-31T01:11:41;3.53;;;1.45;;
23472;SDS011;11909;52.516;13.564;2023-07-31T01:14:14;4.90;;;2.03;;
23472;SDS011;11909;52.516;13.564;2023-07-31T01:16:43;4.50;;;1.65;;
23472;SDS011;11909;52.516;13.564;2023-07-31T01:19:11;3.88;;;1.65;;
23472;SDS011;11909;52.516;13.564;2023-07-31T01:21:51;3.45;;;1.58;;
23472;SDS011;11909;52.516;13.564;2023-07-31T01:24:40;7.40;;;1.83;;
23472;SDS011;11909;52.516;13.564;2023-07-31T01:27:23;4.10;;;1.50;;
23472;SDS011;11909;52.516;13.564;2023-07-31T01:29:55;4.60;;;1.73;;
23472;SDS011;11909;52.516;13.564;2023-07-31T01:32:27;5.20;;;1.88;;
23472;SDS011;11909;52.516;13.564;2023-07-31T01:34:56;4.15;;;1.77;;
23472;SDS011;11909;52.516;13.564;2023-07-31T01:37:27;5.70;;;1.85;;
23472;SDS011;11909;52.516;13.564;2023-07-31T01:39:56;2.33;;;1.67;;
23472;SDS011;11909;52.516;13.564;2023-07-31T01:42:25;4.07;;;2.00;;
23472;SDS011;11909;52.516;13.564;2023-07-31T01:44:53;4.82;;;2.00;;
23472;SDS011;11909;52.516;13.564;2023-07-31T01:47:21;3.65;;;1.83;;
23472;SDS011;11909;52.516;13.564;2023-07-31T01:49:50;4.35;;;1.90;;
23472;SDS011;11909;52.516;13.564;2023-07-31T01:52:18;2.78;;;1.48;;
23472;SDS011;11909;52.516;13.564;2023-07-31T01:54:46;3.53;;;1.70;;
23472;SDS011;11909;52.516;13.564;2023-07-31T01:57:13;6.18;;;2.08;;
23472;SDS011;11909;52.516;13.564;2023-07-31T01:59:43;2.85;;;1.55;;
23472;SDS011;11909;52.516;13.564;2023-07-31T02:02:11;5.38;;;2.20;;
23472;SDS011;11909;52.516;13.564;2023-07-31T02:04:39;3.25;;;2.00;;
23472;SDS011;11909;52.516;13.564;2023-07-31T02:07:07;4.47;;;2.20;;
23472;SDS011;11909;52.516;13.564;2023-07-31T02:09:35;3.50;;;2.03;;
23472;SDS011;11909;52.516;13.564;2023-07-31T02:12:03;5.13;;;2.03;;
23472;SDS011;11909;52.516;13.564;2023-07-31T02:14:31;6.13;;;2.40;;
23472;SDS011;11909;52.516;13.564;2023-07-31T02:17:01;3.97;;;1.88;;
23472;SDS011;11909;52.516;13.564;2023-07-31T02:19:29;9.40;;;2.42;;
23472;SDS011;11909;52.516;13.564;2023-07-31T02:21:57;5.90;;;2.35;;
23472;SDS011;11909;52.516;13.564;2023-07-31T02:24:25;5.30;;;2.00;;
23472;SDS011;11909;52.516;13.564;2023-07-31T02:26:53;4.82;;;2.10;;
23472;SDS011;11909;52.516;13.564;2023-07-31T02:29:20;3.30;;;2.03;;
23472;SDS011;11909;52.516;13.564;2023-07-31T02:31:48;4.88;;;2.60;;
23472;SDS011;11909;52.516;13.564;2023-07-31T02:34:18;2.60;;;2.00;;
23472;SDS011;11909;52.516;13.564;2023-07-31T02:36:46;4.33;;;2.20;;
23472;SDS011;11909;52.516;13.564;2023-07-31T02:39:14;3.75;;;1.77;;
23472;SDS011;11909;52.516;13.564;2023-07-31T02:41:42;6.47;;;2.42;;
23472;SDS011;11909;52.516;13.564;2023-07-31T02:44:10;5.13;;;1.92;;
23472;SDS011;11909;52.516;13.564;2023-07-31T02:46:40;3.72;;;2.28;;
23472;SDS011;11909;52.516;13.564;2023-07-31T02:49:08;5.28;;;2.40;;
23472;SDS011;11909;52.516;13.564;2023-07-31T02:51:38;7.93;;;2.45;;
23472;SDS011;11909;52.516;13.564;2023-07-31T02:54:05;5.78;;;2.15;;
23472;SDS011;11909;52.516;13.564;2023-07-31T02:56:33;6.93;;;2.55;;
23472;SDS011;11909;52.516;13.564;2023-07-31T02:59:01;2.40;;;1.88;;
23472;SDS011;11909;52.516;13.564;2023-07-31T03:01:29;6.53;;;2.70;;
23472;SDS011;11909;52.516;13.564;2023-07-31T03:03:57;4.55;;;2.72;;
23472;SDS011;11909;52.516;13.564;2023-07-31T03:06:25;5.78;;;2.50;;
23472;SDS011;11909;52.516;13.564;2023-07-31T03:08:54;3.47;;;2.10;;
23472;SDS011;11909;52.516;13.564;2023-07-31T03:11:22;8.45;;;2.63;;
23472;SDS011;11909;52.516;13.564;2023-07-31T03:13:50;4.13;;;2.25;;
23472;SDS011;11909;52.516;13.564;2023-07-31T03:16:18;6.75;;;2.70;;
23472;SDS011;11909;52.516;13.564;2023-07-31T03:18:46;5.43;;;2.80;;
23472;SDS011;11909;52.516;13.564;2023-07-31T03:21:14;3.50;;;2.35;;
23472;SDS011;11909;52.516;13.564;2023-07-31T03:23:42;3.55;;;2.67;;
23472;SDS011;11909;52.516;13.564;2023-07-31T03:26:12;6.80;;;3.03;;
23472;SDS011;11909;52.516;13.564;2023-07-31T03:28:39;4.22;;;2.88;;
23472;SDS011;11909;52.516;13.564;2023-07-31T03:31:08;6.43;;;3.17;;
23472;SDS011;11909;52.516;13.564;2023-07-31T03:33:36;7.45;;;3.30;;
23472;SDS011;11909;52.516;13.564;2023-07-31T03:36:04;7.45;;;3.53;;
23472;SDS011;11909;52.516;13.564;2023-07-31T03:38:33;6.53;;;3.70;;
23472;SDS011;11909;52.516;13.564;2023-07-31T03:41:01;6.10;;;3.03;;
23472;SDS011;11909;52.516;13.564;2023-07-31T03:43:30;6.78;;;3.80;;
23472;SDS011;11909;52.516;13.564;2023-07-31T03:45:59;5.07;;;3.30;;
23472;SDS011;11909;52.516;13.564;2023-07-31T03:48:29;5.68;;;3.15;;
23472;SDS011;11909;52.516;13.564;2023-07-31T03:50:56;6.88;;;3.38;;
23472;SDS011;11909;52.516;13.564;2023-07-31T03:53:24;6.57;;;3.28;;
23472;SDS011;11909;52.516;13.564;2023-07-31T03:55:52;3.65;;;2.95;;
23472;SDS011;11909;52.516;13.564;2023-07-31T03:58:20;8.88;;;3.83;;
23472;SDS011;11909;52.516;13.564;2023-07-31T04:00:49;5.03;;;3.42;;
23472;SDS011;11909;52.516;13.564;2023-07-31T04:03:18;8.32;;;3.55;;
23472;SDS011;11909;52.516;13.564;2023-07-31T04:05:45;8.18;;;3.65;;
23472;SDS011;11909;52.516;13.564;2023-07-31T04:08:13;10.07;;;4.10;;
23472;SDS011;11909;52.516;13.564;2023-07-31T04:10:41;8.15;;;3.70;;
23472;SDS011;11909;52.516;13.564;2023-07-31T04:13:09;5.35;;;3.47;;
23472;SDS011;11909;52.516;13.564;2023-07-31T04:15:37;6.20;;;3.53;;
23472;SDS011;11909;52.516;13.564;2023-07-31T04:18:06;5.80;;;3.55;;
23472;SDS011;11909;52.516;13.564;2023-07-31T04:20:34;7.75;;;3.40;;
23472;SDS011;11909;52.516;13.564;2023-07-31T04:23:03;8.52;;;3.70;;
23472;SDS011;11909;52.516;13.564;2023-07-31T04:25:32;7.45;;;3.05;;
23472;SDS011;11909;52.516;13.564;2023-07-31T04:28:01;8.35;;;3.70;;
23472;SDS011;11909;52.516;13.564;2023-07-31T04:30:29;5.65;;;3.17;;
23472;SDS011;11909;52.516;13.564;2023-07-31T04:32:57;7.10;;;3.60;;
23472;SDS011;11909;52.516;13.564;2023-07-31T04:35:26;7.43;;;3.30;;
23472;SDS011;11909;52.516;13.564;2023-07-31T04:37:55;7.90;;;3.43;;
23472;SDS011;11909;52.516;13.564;2023-07-31T04:40:22;6.82;;;3.60;;
23472;SDS011;11909;52.516;13.564;2023-07-31T04:42:50;8.25;;;3.50;;
23472;SDS011;11909;52.516;13.564;2023-07-31T04:45:18;10.43;;;3.70;;
23472;SDS011;11909;52.516;13.564;2023-07-31T04:47:46;6.40;;;3.47;;
23472;SDS011;11909;52.516;13.564;2023-07-31T04:50:14;8.23;;;3.55;;
23472;SDS011;11909;52.516;13.564;2023-07-31T04:52:44;5.18;;;3.20;;
23472;SDS011;11909;52.516;13.564;2023-07-31T04:55:12;5.55;;;3.05;;
23472;SDS011;11909;52.516;13.564;2023-07-31T04:57:40;5.90;;;3.30;;
23472;SDS011;11909;52.516;13.564;2023-07-31T05:00:08;7.13;;;3.70;;
23472;SDS011;11909;52.516;13.564;2023-07-31T05:02:36;5.13;;;3.22;;
23472;SDS011;11909;52.516;13.564;2023-07-31T05:05:04;6.10;;;3.35;;
23472;SDS011;11909;52.516;13.564;2023-07-31T05:07:32;6.22;;;3.00;;
23472;SDS011;11909;52.516;13.564;2023-07-31T05:10:02;8.65;;;3.20;;
23472;SDS011;11909;52.516;13.564;2023-07-31T05:12:30;6.78;;;3.22;;
23472;SDS011;11909;52.516;13.564;2023-07-31T05:14:58;10.70;;;3.50;;
23472;SDS011;11909;52.516;13.564;2023-07-31T05:17:26;8.18;;;3.22;;
23472;SDS011;11909;52.516;13.564;2023-07-31T05:19:54;12.30;;;3.55;;
23472;SDS011;11909;52.516;13.564;2023-07-31T05:22:22;6.20;;;3.15;;
23472;SDS011;11909;52.516;13.564;2023-07-31T05:24:50;5.50;;;3.03;;
23472;SDS011;11909;52.516;13.564;2023-07-31T05:27:19;9.57;;;3.33;;
23472;SDS011;11909;52.516;13.564;2023-07-31T05:29:47;8.18;;;3.40;;
23472;SDS011;11909;52.516;13.564;2023-07-31T05:32:15;5.05;;;2.95;;
23472;SDS011;11909;52.516;13.564;2023-07-31T05:34:43;7.78;;;3.45;;
23472;SDS011;11909;52.516;13.564;2023-07-31T05:37:11;6.00;;;2.92;;
23472;SDS011;11909;52.516;13.564;2023-07-31T05:39:39;7.45;;;3.00;;
23472;SDS011;11909;52.516;13.564;2023-07-31T05:42:07;5.18;;;3.28;;
23472;SDS011;11909;52.516;13.564;2023-07-31T05:44:36;9.35;;;3.35;;
23472;SDS011;11909;52.516;13.564;2023-07-31T05:47:04;5.40;;;2.97;;
23472;SDS011;11909;52.516;13.564;2023-07-31T05:49:32;9.23;;;3.10;;
23472;SDS011;11909;52.516;13.564;2023-07-31T05:52:00;7.22;;;2.97;;
23472;SDS011;11909;52.516;13.564;2023-07-31T05:54:28;7.72;;;2.95;;
23472;SDS011;11909;52.516;13.564;2023-07-31T05:56:56;11.05;;;3.22;;
23472;SDS011;11909;52.516;13.564;2023-07-31T05:59:24;6.05;;;2.65;;
23472;SDS011;11909;52.516;13.564;2023-07-31T06:01:53;9.73;;;2.80;;
23472;SDS011;11909;52.516;13.564;2023-07-31T06:04:21;4.93;;;2.73;;
23472;SDS011;11909;52.516;13.564;2023-07-31T06:06:51;5.50;;;2.88;;
23472;SDS011;11909;52.516;13.564;2023-07-31T06:09:20;7.10;;;2.67;;
23472;SDS011;11909;52.516;13.564;2023-07-31T06:11:48;5.82;;;2.67;;
23472;SDS011;11909;52.516;13.564;2023-07-31T06:14:16;5.07;;;2.60;;
23472;SDS011;11909;52.516;13.564;2023-07-31T06:16:44;4.68;;;2.60;;
23472;SDS011;11909;52.516;13.564;2023-07-31T06:19:13;6.05;;;2.33;;
23472;SDS011;11909;52.516;13.564;2023-07-31T06:21:41;9.80;;;2.78;;
23472;SDS011;11909;52.516;13.564;2023-07-31T06:24:10;8.50;;;3.00;;
23472;SDS011;11909;52.516;13.564;2023-07-31T06:26:39;4.95;;;2.60;;
23472;SDS011;11909;52.516;13.564;2023-07-31T06:29:08;8.27;;;2.90;;
23472;SDS011;11909;52.516;13.564;2023-07-31T06:31:36;9.73;;;2.72;;
23472;SDS011;11909;52.516;13.564;2023-07-31T06:34:05;5.25;;;2.35;;
23472;SDS011;11909;52.516;13.564;2023-07-31T06:36:34;5.00;;;2.65;;
23472;SDS011;11909;52.516;13.564;2023-07-31T06:39:02;6.47;;;3.10;;
23472;SDS011;11909;52.516;13.564;2023-07-31T06:41:31;8.15;;;2.88;;
23472;SDS011;11909;52.516;13.564;2023-07-31T06:43:59;4.78;;;2.38;;
23472;SDS011;11909;52.516;13.564;2023-07-31T06:46:27;6.78;;;2.65;;
23472;SDS011;11909;52.516;13.564;2023-07-31T06:48:55;5.90;;;2.72;;
23472;SDS011;11909;52.516;13.564;2023-07-31T06:51:23;8.48;;;3.00;;
23472;SDS011;11909;52.516;13.564;2023-07-31T06:53:52;5.47;;;2.63;;
23472;SDS011;11909;52.516;13.564;2023-07-31T06:56:20;5.13;;;2.60;;
23472;SDS011;11909;52.516;13.564;2023-07-31T06:58:48;5.65;;;2.50;;
23472;SDS011;11909;52.516;13.564;2023-07-31T07:01:16;7.75;;;2.75;;
23472;SDS011;11909;52.516;13.564;2023-07-31T07:03:44;5.20;;;2.55;;
23472;SDS011;11909;52.516;13.564;2023-07-31T07:06:12;10.80;;;2.80;;
23472;SDS011;11909;52.516;13.564;2023-07-31T07:08:40;6.18;;;2.55;;
23472;SDS011;11909;52.516;13.564;2023-07-31T07:11:10;5.05;;;2.92;;
23472;SDS011;11909;52.516;13.564;2023-07-31T07:13:38;11.07;;;2.85;;
23472;SDS011;11909;52.516;13.564;2023-07-31T07:16:06;7.65;;;2.90;;
23472;SDS011;11909;52.516;13.564;2023-07-31T07:18:34;7.95;;;3.13;;
23472;SDS011;11909;52.516;13.564;2023-07-31T07:21:06;6.40;;;2.70;;
23472;SDS011;11909;52.516;13.564;2023-07-31T07:23:34;4.78;;;2.58;;
23472;SDS011;11909;52.516;13.564;2023-07-31T07:26:02;6.00;;;2.58;;
23472;SDS011;11909;52.516;13.564;2023-07-31T07:28:31;7.18;;;3.22;;
23472;SDS011;11909;52.516;13.564;2023-07-31T07:30:59;8.32;;;3.00;;
23472;SDS011;11909;52.516;13.564;2023-07-31T07:33:27;7.20;;;3.17;;
23472;SDS011;11909;52.516;13.564;2023-07-31T07:35:55;5.18;;;2.78;;
23472;SDS011;11909;52.516;13.564;2023-07-31T07:38:27;6.00;;;2.67;;
23472;SDS011;11909;52.516;13.564;2023-07-31T07:40:55;7.38;;;2.75;;
23472;SDS011;11909;52.516;13.564;2023-07-31T07:43:23;5.93;;;2.95;;
23472;SDS011;11909;52.516;13.564;2023-07-31T07:45:52;7.72;;;3.13;;
23472;SDS011;11909;52.516;13.564;2023-07-31T07:48:21;4.97;;;2.45;;
23472;SDS011;11909;52.516;13.564;2023-07-31T07:50:49;4.10;;;2.50;;
23472;SDS011;11909;52.516;13.564;2023-07-31T07:53:18;6.30;;;3.08;;
23472;SDS011;11909;52.516;13.564;2023-07-31T07:55:45;4.93;;;2.92;;
23472;SDS011;11909;52.516;13.564;2023-07-31T07:58:13;6.72;;;2.83;;
23472;SDS011;11909;52.516;13.564;2023-07-31T08:00:41;6.63;;;2.50;;
23472;SDS011;11909;52.516;13.564;2023-07-31T08:03:11;8.15;;;2.80;;
23472;SDS011;11909;52.516;13.564;2023-07-31T08:05:38;4.45;;;2.65;;
23472;SDS011;11909;52.516;13.564;2023-07-31T08:08:07;5.30;;;2.40;;
23472;SDS011;11909;52.516;13.564;2023-07-31T08:10:35;4.78;;;2.60;;
23472;SDS011;11909;52.516;13.564;2023-07-31T08:13:03;5.70;;;2.58;;
23472;SDS011;11909;52.516;13.564;2023-07-31T08:15:31;3.90;;;2.30;;
23472;SDS011;11909;52.516;13.564;2023-07-31T08:17:59;5.60;;;2.70;;
23472;SDS011;11909;52.516;13.564;2023-07-31T08:20:28;3.92;;;2.80;;
23472;SDS011;11909;52.516;13.564;2023-07-31T08:22:56;6.38;;;3.10;;
23472;SDS011;11909;52.516;13.564;2023-07-31T08:25:24;4.03;;;2.58;;
23472;SDS011;11909;52.516;13.564;2023-07-31T08:27:52;4.60;;;2.42;;
23472;SDS011;11909;52.516;13.564;2023-07-31T08:30:20;3.13;;;2.30;;
23472;SDS011;11909;52.516;13.564;2023-07-31T08:32:49;6.13;;;2.08;;
23472;SDS011;11909;52.516;13.564;2023-07-31T08:35:17;3.20;;;2.00;;
23472;SDS011;11909;52.516;13.564;2023-07-31T08:37:46;4.20;;;2.38;;
23472;SDS011;11909;52.516;13.564;2023-07-31T08:40:15;4.35;;;1.80;;
23472;SDS011;11909;52.516;13.564;2023-07-31T08:42:43;3.33;;;2.00;;
23472;SDS011;11909;52.516;13.564;2023-07-31T08:45:13;3.00;;;1.77;;
23472;SDS011;11909;52.516;13.564;2023-07-31T08:47:44;4.32;;;2.08;;
23472;SDS011;11909;52.516;13.564;2023-07-31T08:50:14;3.60;;;1.67;;
23472;SDS011;11909;52.516;13.564;2023-07-31T08:52:43;3.10;;;1.88;;
23472;SDS011;11909;52.516;13.564;2023-07-31T08:55:13;3.03;;;1.92;;
23472;SDS011;11909;52.516;13.564;2023-07-31T08:57:41;2.92;;;2.30;;
23472;SDS011;11909;52.516;13.564;2023-07-31T09:00:10;2.88;;;2.08;;
23472;SDS011;11909;52.516;13.564;2023-07-31T09:02:41;3.22;;;2.03;;
23472;SDS011;11909;52.516;13.564;2023-07-31T09:05:13;4.20;;;2.28;;
23472;SDS011;11909;52.516;13.564;2023-07-31T09:07:42;5.70;;;2.10;;
23472;SDS011;11909;52.516;13.564;2023-07-31T09:10:15;4.13;;;2.28;;
23472;SDS011;11909;52.516;13.564;2023-07-31T09:12:43;2.92;;;1.95;;
23472;SDS011;11909;52.516;13.564;2023-07-31T09:15:12;5.90;;;2.30;;
23472;SDS011;11909;52.516;13.564;2023-07-31T09:17:50;3.95;;;2.20;;
23472;SDS011;11909;52.516;13.564;2023-07-31T09:20:28;4.72;;;2.50;;
23472;SDS011;11909;52.516;13.564;2023-07-31T09:22:58;3.45;;;1.60;;
23472;SDS011;11909;52.516;13.564;2023-07-31T09:25:35;5.15;;;1.85;;
23472;SDS011;11909;52.516;13.564;2023-07-31T09:28:05;3.47;;;2.22;;
23472;SDS011;11909;52.516;13.564;2023-07-31T09:30:44;4.38;;;2.08;;
23472;SDS011;11909;52.516;13.564;2023-07-31T09:33:15;3.15;;;1.90;;
23472;SDS011;11909;52.516;13.564;2023-07-31T09:35:49;3.10;;;2.20;;
23472;SDS011;11909;52.516;13.564;2023-07-31T09:38:17;4.13;;;1.83;;
23472;SDS011;11909;52.516;13.564;2023-07-31T09:40:47;1.85;;;1.50;;
23472;SDS011;11909;52.516;13.564;2023-07-31T09:43:36;3.53;;;1.40;;
23472;SDS011;11909;52.516;13.564;2023-07-31T09:46:05;1.67;;;1.30;;
23472;SDS011;11909;52.516;13.564;2023-07-31T09:48:40;4.00;;;1.85;;
23472;SDS011;11909;52.516;13.564;2023-07-31T09:51:08;4.70;;;1.50;;
23472;SDS011;11909;52.516;13.564;2023-07-31T09:53:36;1.50;;;1.30;;
23472;SDS011;11909;52.516;13.564;2023-07-31T09:56:05;1.65;;;0.93;;
23472;SDS011;11909;52.516;13.564;2023-07-31T09:58:34;2.00;;;1.30;;
23472;SDS011;11909;52.516;13.564;2023-07-31T10:01:03;3.15;;;1.30;;
23472;SDS011;11909;52.516;13.564;2023-07-31T10:03:31;1.95;;;1.10;;
23472;SDS011;11909;52.516;13.564;2023-07-31T10:06:00;1.80;;;1.10;;
23472;SDS011;11909;52.516;13.564;2023-07-31T10:08:30;2.25;;;1.20;;
23472;SDS011;11909;52.516;13.564;2023-07-31T10:11:03;1.50;;;1.23;;
23472;SDS011;11909;52.516;13.564;2023-07-31T10:13:32;2.97;;;1.30;;
23472;SDS011;11909;52.516;13.564;2023-07-31T10:16:01;4.22;;;1.55;;
23472;SDS011;11909;52.516;13.564;2023-07-31T10:18:30;4.43;;;1.70;;
23472;SDS011;11909;52.516;13.564;2023-07-31T10:20:59;3.10;;;1.90;;
23472;SDS011;11909;52.516;13.564;2023-07-31T10:23:26;31.00;;;6.30;;
23472;SDS011;11909;52.516;13.564;2023-07-31T10:25:55;3.78;;;2.30;;
23472;SDS011;11909;52.516;13.564;2023-07-31T10:28:26;2.60;;;1.80;;
23472;SDS011;11909;52.516;13.564;2023-07-31T10:30:56;5.22;;;2.30;;
23472;SDS011;11909;52.516;13.564;2023-07-31T10:33:25;5.50;;;2.33;;
23472;SDS011;11909;52.516;13.564;2023-07-31T10:38:44;4.55;;;2.70;;
23472;SDS011;11909;52.516;13.564;2023-07-31T10:41:12;4.53;;;2.78;;
23472;SDS011;11909;52.516;13.564;2023-07-31T10:43:40;4.50;;;2.83;;
23472;SDS011;11909;52.516;13.564;2023-07-31T10:46:11;9.73;;;3.53;;
23472;SDS011;11909;52.516;13.564;2023-07-31T10:48:41;5.70;;;2.92;;
23472;SDS011;11909;52.516;13.564;2023-07-31T10:51:10;7.15;;;3.20;;
23472;SDS011;11909;52.516;13.564;2023-07-31T10:53:39;9.85;;;3.85;;
23472;SDS011;11909;52.516;13.564;2023-07-31T10:56:08;6.75;;;3.05;;
23472;SDS011;11909;52.516;13.564;2023-07-31T10:58:43;8.60;;;3.67;;
23472;SDS011;11909;52.516;13.564;2023-07-31T11:01:13;6.07;;;3.35;;
23472;SDS011;11909;52.516;13.564;2023-07-31T11:03:42;6.83;;;3.30;;
23472;SDS011;11909;52.516;13.564;2023-07-31T11:06:12;8.45;;;3.60;;
23472;SDS011;11909;52.516;13.564;2023-07-31T11:08:44;6.32;;;3.42;;
23472;SDS011;11909;52.516;13.564;2023-07-31T11:11:14;6.18;;;2.80;;
23472;SDS011;11909;52.516;13.564;2023-07-31T11:13:44;5.57;;;3.20;;
23472;SDS011;11909;52.516;13.564;2023-07-31T11:16:17;6.13;;;3.40;;
23472;SDS011;11909;52.516;13.564;2023-07-31T11:18:47;4.63;;;2.95;;
23472;SDS011;11909;52.516;13.564;2023-07-31T11:21:17;5.72;;;3.20;;
23472;SDS011;11909;52.516;13.564;2023-07-31T11:23:46;5.15;;;2.90;;
23472;SDS011;11909;52.516;13.564;2023-07-31T11:26:14;4.68;;;3.00;;
23472;SDS011;11909;52.516;13.564;2023-07-31T11:28:45;6.25;;;2.90;;
23472;SDS011;11909;52.516;13.564;2023-07-31T11:31:14;7.28;;;3.42;;
23472;SDS011;11909;52.516;13.564;2023-07-31T11:33:44;8.13;;;3.47;;
23472;SDS011;11909;52.516;13.564;2023-07-31T11:36:14;9.43;;;2.97;;
23472;SDS011;11909;52.516;13.564;2023-07-31T11:38:42;7.40;;;3.10;;
23472;SDS011;11909;52.516;13.564;2023-07-31T11:41:10;9.18;;;3.15;;
23472;SDS011;11909;52.516;13.564;2023-07-31T11:43:42;5.53;;;3.20;;
23472;SDS011;11909;52.516;13.564;2023-07-31T11:46:11;8.93;;;3.80;;
23472;SDS011;11909;52.516;13.564;2023-07-31T11:48:42;4.05;;;2.80;;
23472;SDS011;11909;52.516;13.564;2023-07-31T11:51:12;4.65;;;2.90;;
23472;SDS011;11909;52.516;13.564;2023-07-31T11:53:42;4.18;;;2.83;;
23472;SDS011;11909;52.516;13.564;2023-07-31T11:56:12;6.72;;;2.90;;
23472;SDS011;11909;52.516;13.564;2023-07-31T11:58:41;5.30;;;2.67;;
23472;SDS011;11909;52.516;13.564;2023-07-31T12:01:13;4.80;;;2.80;;
23472;SDS011;11909;52.516;13.564;2023-07-31T12:06:13;4.90;;;2.60;;
23472;SDS011;11909;52.516;13.564;2023-07-31T12:08:41;6.35;;;2.90;;
23472;SDS011;11909;52.516;13.564;2023-07-31T12:11:09;6.20;;;3.10;;
23472;SDS011;11909;52.516;13.564;2023-07-31T12:13:37;6.03;;;2.60;;
23472;SDS011;11909;52.516;13.564;2023-07-31T12:16:05;6.68;;;3.03;;
23472;SDS011;11909;52.516;13.564;2023-07-31T12:18:33;3.83;;;2.70;;
23472;SDS011;11909;52.516;13.564;2023-07-31T12:21:05;7.00;;;3.20;;
23472;SDS011;11909;52.516;13.564;2023-07-31T12:23:35;6.35;;;2.75;;
23472;SDS011;11909;52.516;13.564;2023-07-31T12:26:05;7.00;;;2.70;;
23472;SDS011;11909;52.516;13.564;2023-07-31T12:28:36;5.63;;;3.10;;
23472;SDS011;11909;52.516;13.564;2023-07-31T12:31:08;6.80;;;3.53;;
23472;SDS011;11909;52.516;13.564;2023-07-31T12:33:37;8.77;;;3.67;;
23472;SDS011;11909;52.516;13.564;2023-07-31T12:36:08;3.67;;;2.80;;
23472;SDS011;11909;52.516;13.564;2023-07-31T12:38:37;6.10;;;2.60;;
23472;SDS011;11909;52.516;13.564;2023-07-31T12:41:05;5.72;;;2.58;;
23472;SDS011;11909;52.516;13.564;2023-07-31T12:43:33;4.97;;;2.78;;
23472;SDS011;11909;52.516;13.564;2023-07-31T12:46:02;4.65;;;2.70;;
23472;SDS011;11909;52.516;13.564;2023-07-31T12:48:30;4.72;;;3.03;;
23472;SDS011;11909;52.516;13.564;2023-07-31T12:50:59;5.47;;;2.42;;
23472;SDS011;11909;52.516;13.564;2023-07-31T12:53:28;5.65;;;2.38;;
23472;SDS011;11909;52.516;13.564;2023-07-31T12:55:56;4.00;;;2.30;;
23472;SDS011;11909;52.516;13.564;2023-07-31T12:58:24;3.78;;;2.40;;
23472;SDS011;11909;52.516;13.564;2023-07-31T13:00:52;7.78;;;2.47;;
23472;SDS011;11909;52.516;13.564;2023-07-31T13:03:20;4.00;;;2.30;;
23472;SDS011;11909;52.516;13.564;2023-07-31T13:05:48;5.55;;;2.10;;
23472;SDS011;11909;52.516;13.564;2023-07-31T13:08:18;3.80;;;2.10;;
23472;SDS011;11909;52.516;13.564;2023-07-31T13:10:48;6.95;;;2.35;;
23472;SDS011;11909;52.516;13.564;2023-07-31T13:13:16;2.47;;;1.70;;
23472;SDS011;11909;52.516;13.564;2023-07-31T13:15:44;2.22;;;1.50;;
23472;SDS011;11909;52.516;13.564;2023-07-31T13:18:12;4.00;;;1.88;;
23472;SDS011;11909;52.516;13.564;2023-07-31T13:20:40;3.03;;;1.77;;
23472;SDS011;11909;52.516;13.564;2023-07-31T13:23:07;5.68;;;2.10;;
23472;SDS011;11909;52.516;13.564;2023-07-31T13:25:36;4.82;;;1.80;;
23472;SDS011;11909;52.516;13.564;2023-07-31T13:28:05;3.15;;;1.88;;
23472;SDS011;11909;52.516;13.564;2023-07-31T13:30:33;5.68;;;1.60;;
23472;SDS011;11909;52.516;13.564;2023-07-31T13:33:01;4.13;;;2.15;;
23472;SDS011;11909;52.516;13.564;2023-07-31T13:35:29;3.22;;;1.95;;
23472;SDS011;11909;52.516;13.564;2023-07-31T13:37:57;3.78;;;2.50;;
23472;SDS011;11909;52.516;13.564;2023-07-31T13:40:25;4.97;;;2.55;;
23472;SDS011;11909;52.516;13.564;2023-07-31T13:42:53;5.18;;;2.45;;
23472;SDS011;11909;52.516;13.564;2023-07-31T13:45:23;7.25;;;2.47;;
23472;SDS011;11909;52.516;13.564;2023-07-31T13:47:51;6.77;;;3.13;;
23472;SDS011;11909;52.516;13.564;2023-07-31T13:50:19;6.10;;;2.60;;
23472;SDS011;11909;52.516;13.564;2023-07-31T13:52:48;5.60;;;2.72;;
23472;SDS011;11909;52.516;13.564;2023-07-31T13:55:17;5.10;;;2.58;;
23472;SDS011;11909;52.516;13.564;2023-07-31T13:57:45;5.53;;;2.85;;
23472;SDS011;11909;52.516;13.564;2023-07-31T14:00:13;6.93;;;2.47;;
23472;SDS011;11909;52.516;13.564;2023-07-31T14:02:43;4.97;;;2.42;;
23472;SDS011;11909;52.516;13.564;2023-07-31T14:05:11;9.88;;;2.83;;
23472;SDS011;11909;52.516;13.564;2023-07-31T14:07:39;4.28;;;2.70;;
23472;SDS011;11909;52.516;13.564;2023-07-31T14:10:07;4.15;;;2.80;;
23472;SDS011;11909;52.516;13.564;2023-07-31T14:12:35;4.80;;;2.60;;
23472;SDS011;11909;52.516;13.564;2023-07-31T14:15:08;6.38;;;2.90;;
23472;SDS011;11909;52.516;13.564;2023-07-31T14:17:37;7.43;;;2.95;;
23472;SDS011;11909;52.516;13.564;2023-07-31T14:20:08;6.22;;;2.97;;
23472;SDS011;11909;52.516;13.564;2023-07-31T14:22:37;6.35;;;3.70;;
23472;SDS011;11909;52.516;13.564;2023-07-31T14:25:05;8.43;;;2.47;;
23472;SDS011;11909;52.516;13.564;2023-07-31T14:27:36;6.97;;;2.65;;
23472;SDS011;11909;52.516;13.564;2023-07-31T14:30:05;8.70;;;2.85;;
23472;SDS011;11909;52.516;13.564;2023-07-31T14:32:33;3.70;;;2.55;;
23472;SDS011;11909;52.516;13.564;2023-07-31T14:35:04;4.32;;;2.70;;
23472;SDS011;11909;52.516;13.564;2023-07-31T14:37:37;5.72;;;2.92;;
23472;SDS011;11909;52.516;13.564;2023-07-31T14:40:06;6.13;;;2.90;;
23472;SDS011;11909;52.516;13.564;2023-07-31T14:42:35;5.97;;;3.30;;
23472;SDS011;11909;52.516;13.564;2023-07-31T14:45:03;4.57;;;2.83;;
23472;SDS011;11909;52.516;13.564;2023-07-31T14:47:32;4.00;;;2.65;;
23472;SDS011;11909;52.516;13.564;2023-07-31T14:50:01;6.40;;;3.08;;